Forside
METAR-TAF:

METAR-TAF

Lufthavne :

Malmö Airport

Malmø, Sverige

Breddekreds: 55-33N, længdekreds: 013-22E, højde: 106 m

Aktuelle vejr

Denne rapport blev lavet for 21 minutter siden, kl. 10:20 UTC
Vind 10 kt fra sydsydøst
Temperatur 25°C
Fugtighed 61%
Tryk 1007 hPa
Sigt 10 km eller mere
Nogle få skyer i en højde af 2500 ft

METAR: ESMS 161020Z 16010KT 9999 FEW025 25/17 Q1007

Tid: 12:41 (10:41 UTC)

Vejrudsigter

Denne rapport blev lavet for 2 timer og 36 minutter siden, kl. 08:05 UTC
Foreløbig gælder fra 16 på 09 UTC til 17 på 09 UTC
Vind 10 kt fra syd
Sigt 10 km eller mere
Spredte skyer i en højde af 3000 ft
Midlertidig
fra 16 på 09 UTC til 16 på 20 UTC
Spredte skyer i en højde af 3000 ft, Cumulonimbus.
Sandsynlighed 40%
fra 16 på 22 UTC til 17 på 06 UTC
Sigt: 2000 m
tågebanker, dis
ændring
fra 17 på 07 UTC til 17 på 09 UTC
Vind 6 kt fra vest

TAF: ESMS 160805Z 1609/1709 18010KT 9999 SCT030 TEMPO 1609/1620 SCT030CB PROB40 1622/1706 2000 BCFG BR BECMG 1707/1709 27006KT

Vejrobservationer og prognoser fra mere end 4000 lufthavne (METAR og TAF).

De gule og røde prikker repræsenterer de meteorologiske stationer.

Flyt musen over at se navnet på stationen.

Så klik over at se vejr observationer og prognoser.

At skifte det kort: Klik på de grønne knapper med et sort kors for at zoome ind; på den grønne knap med en bindestreg for at zoome ud; eller på de grønne pile for tilstødende kort.


METAR-TAF: